sensor_id;sensor_type;location;lat;lon;timestamp;temperature;humidity
29353;DHT22;16344;50.364;8.944;2022-08-06T00:01:41;19.60;1.00
29353;DHT22;16344;50.364;8.944;2022-08-06T00:04:07;19.60;1.00
29353;DHT22;16344;50.364;8.944;2022-08-06T00:06:32;19.60;1.00
29353;DHT22;16344;50.364;8.944;2022-08-06T00:08:58;19.50;1.00
29353;DHT22;16344;50.364;8.944;2022-08-06T00:11:24;19.40;1.00
29353;DHT22;16344;50.364;8.944;2022-08-06T00:13:49;19.30;1.00
29353;DHT22;16344;50.364;8.944;2022-08-06T00:16:15;19.20;1.00
29353;DHT22;16344;50.364;8.944;2022-08-06T00:18:41;19.20;1.00
29353;DHT22;16344;50.364;8.944;2022-08-06T00:21:06;19.20;1.00
29353;DHT22;16344;50.364;8.944;2022-08-06T00:23:32;19.10;1.00
29353;DHT22;16344;50.364;8.944;2022-08-06T00:25:57;19.20;1.00
29353;DHT22;16344;50.364;8.944;2022-08-06T00:28:24;19.10;1.00
29353;DHT22;16344;50.364;8.944;2022-08-06T00:30:51;19.20;1.00
29353;DHT22;16344;50.364;8.944;2022-08-06T00:33:17;19.20;1.00
29353;DHT22;16344;50.364;8.944;2022-08-06T00:35:43;19.20;1.00
29353;DHT22;16344;50.364;8.944;2022-08-06T00:38:09;19.10;1.00
29353;DHT22;16344;50.364;8.944;2022-08-06T00:40:35;19.10;1.00
29353;DHT22;16344;50.364;8.944;2022-08-06T00:43:03;19.10;1.00
29353;DHT22;16344;50.364;8.944;2022-08-06T00:45:33;19.20;1.00
29353;DHT22;16344;50.364;8.944;2022-08-06T00:47:59;19.10;1.00
29353;DHT22;16344;50.364;8.944;2022-08-06T00:50:25;19.10;1.00
29353;DHT22;16344;50.364;8.944;2022-08-06T00:52:51;19.10;1.00
29353;DHT22;16344;50.364;8.944;2022-08-06T00:55:17;19.10;1.00
29353;DHT22;16344;50.364;8.944;2022-08-06T00:57:43;19.00;1.00
29353;DHT22;16344;50.364;8.944;2022-08-06T01:00:09;19.00;1.00
29353;DHT22;16344;50.364;8.944;2022-08-06T01:02:35;18.90;1.00
29353;DHT22;16344;50.364;8.944;2022-08-06T01:05:00;18.90;1.00
29353;DHT22;16344;50.364;8.944;2022-08-06T01:07:26;18.70;1.00
29353;DHT22;16344;50.364;8.944;2022-08-06T01:09:52;18.70;1.00
29353;DHT22;16344;50.364;8.944;2022-08-06T01:12:17;18.80;1.00
29353;DHT22;16344;50.364;8.944;2022-08-06T01:14:43;18.70;1.00
29353;DHT22;16344;50.364;8.944;2022-08-06T01:17:26;18.60;1.00
29353;DHT22;16344;50.364;8.944;2022-08-06T01:20:02;18.70;1.00
29353;DHT22;16344;50.364;8.944;2022-08-06T01:25:36;18.60;1.00
29353;DHT22;16344;50.364;8.944;2022-08-06T01:28:37;18.50;1.00
29353;DHT22;16344;50.364;8.944;2022-08-06T01:31:13;18.40;1.00
29353;DHT22;16344;50.364;8.944;2022-08-06T01:33:52;18.40;1.00
29353;DHT22;16344;50.364;8.944;2022-08-06T01:36:23;18.30;1.00
29353;DHT22;16344;50.364;8.944;2022-08-06T01:38:52;18.30;1.00
29353;DHT22;16344;50.364;8.944;2022-08-06T01:41:23;18.20;1.00
29353;DHT22;16344;50.364;8.944;2022-08-06T01:44:17;18.20;1.00
29353;DHT22;16344;50.364;8.944;2022-08-06T01:46:47;18.20;1.00
29353;DHT22;16344;50.364;8.944;2022-08-06T01:49:17;18.30;1.00
29353;DHT22;16344;50.364;8.944;2022-08-06T01:51:44;18.20;1.00
29353;DHT22;16344;50.364;8.944;2022-08-06T01:54:12;18.20;1.00
29353;DHT22;16344;50.364;8.944;2022-08-06T01:56:41;18.00;1.00
29353;DHT22;16344;50.364;8.944;2022-08-06T01:59:10;18.00;1.00
29353;DHT22;16344;50.364;8.944;2022-08-06T02:01:38;18.00;1.00
29353;DHT22;16344;50.364;8.944;2022-08-06T02:04:05;18.00;1.00
29353;DHT22;16344;50.364;8.944;2022-08-06T02:06:40;18.00;1.00
29353;DHT22;16344;50.364;8.944;2022-08-06T02:09:11;18.00;1.00
29353;DHT22;16344;50.364;8.944;2022-08-06T02:11:39;17.90;1.00
29353;DHT22;16344;50.364;8.944;2022-08-06T02:14:07;17.90;1.00
29353;DHT22;16344;50.364;8.944;2022-08-06T02:16:35;17.80;1.00
29353;DHT22;16344;50.364;8.944;2022-08-06T02:19:03;17.80;1.00
29353;DHT22;16344;50.364;8.944;2022-08-06T02:21:31;17.80;1.00
29353;DHT22;16344;50.364;8.944;2022-08-06T02:24:00;17.70;1.00
29353;DHT22;16344;50.364;8.944;2022-08-06T02:26:28;17.80;1.00
29353;DHT22;16344;50.364;8.944;2022-08-06T02:28:56;17.60;1.00
29353;DHT22;16344;50.364;8.944;2022-08-06T02:31:22;17.50;1.00
29353;DHT22;16344;50.364;8.944;2022-08-06T02:33:49;17.50;1.00
29353;DHT22;16344;50.364;8.944;2022-08-06T02:36:44;17.40;1.00
29353;DHT22;16344;50.364;8.944;2022-08-06T02:39:28;17.30;1.00
29353;DHT22;16344;50.364;8.944;2022-08-06T02:42:02;17.40;1.00
29353;DHT22;16344;50.364;8.944;2022-08-06T02:45:21;17.40;1.00
29353;DHT22;16344;50.364;8.944;2022-08-06T02:47:53;17.50;1.00
29353;DHT22;16344;50.364;8.944;2022-08-06T02:50:28;17.60;1.00
29353;DHT22;16344;50.364;8.944;2022-08-06T02:53:07;17.60;1.00
29353;DHT22;16344;50.364;8.944;2022-08-06T02:55:35;17.50;1.00
29353;DHT22;16344;50.364;8.944;2022-08-06T02:58:19;17.60;1.00
29353;DHT22;16344;50.364;8.944;2022-08-06T03:00:49;17.60;1.00
29353;DHT22;16344;50.364;8.944;2022-08-06T03:03:16;17.50;1.00
29353;DHT22;16344;50.364;8.944;2022-08-06T03:05:44;17.60;10.40
29353;DHT22;16344;50.364;8.944;2022-08-06T03:08:13;17.90;7.50
29353;DHT22;16344;50.364;8.944;2022-08-06T03:10:40;17.70;1.00
29353;DHT22;16344;50.364;8.944;2022-08-06T03:13:07;17.60;1.00
29353;DHT22;16344;50.364;8.944;2022-08-06T03:15:35;17.70;1.00
29353;DHT22;16344;50.364;8.944;2022-08-06T03:18:03;17.50;1.00
29353;DHT22;16344;50.364;8.944;2022-08-06T03:20:32;17.40;1.00
29353;DHT22;16344;50.364;8.944;2022-08-06T03:23:01;17.30;1.00
29353;DHT22;16344;50.364;8.944;2022-08-06T03:25:29;17.20;1.00
29353;DHT22;16344;50.364;8.944;2022-08-06T03:27:56;17.20;1.00
29353;DHT22;16344;50.364;8.944;2022-08-06T03:30:23;17.00;1.20
29353;DHT22;16344;50.364;8.944;2022-08-06T03:32:49;17.00;9.90
29353;DHT22;16344;50.364;8.944;2022-08-06T03:35:16;16.90;13.80
29353;DHT22;16344;50.364;8.944;2022-08-06T03:37:43;16.90;13.90
29353;DHT22;16344;50.364;8.944;2022-08-06T03:40:09;16.80;12.60
29353;DHT22;16344;50.364;8.944;2022-08-06T03:42:36;16.70;9.40
29353;DHT22;16344;50.364;8.944;2022-08-06T03:45:01;16.80;3.70
29353;DHT22;16344;50.364;8.944;2022-08-06T03:47:31;16.90;1.00
29353;DHT22;16344;50.364;8.944;2022-08-06T03:50:21;16.80;1.00
29353;DHT22;16344;50.364;8.944;2022-08-06T03:52:52;16.90;1.00
29353;DHT22;16344;50.364;8.944;2022-08-06T03:55:23;16.80;14.60
29353;DHT22;16344;50.364;8.944;2022-08-06T03:57:51;16.80;16.80
29353;DHT22;16344;50.364;8.944;2022-08-06T04:00:20;16.90;21.30
29353;DHT22;16344;50.364;8.944;2022-08-06T04:02:50;16.80;10.10
29353;DHT22;16344;50.364;8.944;2022-08-06T04:05:24;16.90;10.80
29353;DHT22;16344;50.364;8.944;2022-08-06T04:07:54;16.70;10.80
29353;DHT22;16344;50.364;8.944;2022-08-06T04:10:20;16.70;14.00
29353;DHT22;16344;50.364;8.944;2022-08-06T04:12:46;16.80;12.60
29353;DHT22;16344;50.364;8.944;2022-08-06T04:15:13;16.80;9.40
29353;DHT22;16344;50.364;8.944;2022-08-06T04:17:41;16.80;7.80
29353;DHT22;16344;50.364;8.944;2022-08-06T04:20:10;16.90;1.00
29353;DHT22;16344;50.364;8.944;2022-08-06T04:22:37;17.00;1.00
29353;DHT22;16344;50.364;8.944;2022-08-06T04:25:03;17.10;1.00
29353;DHT22;16344;50.364;8.944;2022-08-06T04:27:29;17.10;1.00
29353;DHT22;16344;50.364;8.944;2022-08-06T04:29:57;17.10;1.00
29353;DHT22;16344;50.364;8.944;2022-08-06T04:32:24;17.20;1.00
29353;DHT22;16344;50.364;8.944;2022-08-06T04:34:52;17.10;1.00
29353;DHT22;16344;50.364;8.944;2022-08-06T04:37:18;17.00;1.00
29353;DHT22;16344;50.364;8.944;2022-08-06T04:39:44;17.00;1.00
29353;DHT22;16344;50.364;8.944;2022-08-06T04:42:10;17.10;1.00
29353;DHT22;16344;50.364;8.944;2022-08-06T04:44:37;17.20;1.00
29353;DHT22;16344;50.364;8.944;2022-08-06T04:47:03;17.20;1.00
29353;DHT22;16344;50.364;8.944;2022-08-06T04:49:29;17.30;1.00
29353;DHT22;16344;50.364;8.944;2022-08-06T04:51:55;17.30;1.00
29353;DHT22;16344;50.364;8.944;2022-08-06T04:54:21;17.50;1.00
29353;DHT22;16344;50.364;8.944;2022-08-06T04:56:46;17.70;1.00
29353;DHT22;16344;50.364;8.944;2022-08-06T04:59:12;18.10;1.00
29353;DHT22;16344;50.364;8.944;2022-08-06T05:01:38;18.40;1.00
29353;DHT22;16344;50.364;8.944;2022-08-06T05:04:04;18.50;1.00
29353;DHT22;16344;50.364;8.944;2022-08-06T05:09:13;20.50;1.00
29353;DHT22;16344;50.364;8.944;2022-08-06T05:11:53;22.10;1.00
29353;DHT22;16344;50.364;8.944;2022-08-06T05:14:27;23.70;1.00
29353;DHT22;16344;50.364;8.944;2022-08-06T05:16:55;25.00;99.90
29353;DHT22;16344;50.364;8.944;2022-08-06T05:19:34;26.20;99.90
29353;DHT22;16344;50.364;8.944;2022-08-06T05:22:01;27.50;99.90
29353;DHT22;16344;50.364;8.944;2022-08-06T05:24:27;28.20;99.90
29353;DHT22;16344;50.364;8.944;2022-08-06T05:26:54;28.90;99.90
29353;DHT22;16344;50.364;8.944;2022-08-06T05:29:20;29.10;99.90
29353;DHT22;16344;50.364;8.944;2022-08-06T05:31:46;30.00;99.90
29353;DHT22;16344;50.364;8.944;2022-08-06T05:34:12;30.90;99.90
29353;DHT22;16344;50.364;8.944;2022-08-06T05:36:39;30.90;99.90
29353;DHT22;16344;50.364;8.944;2022-08-06T05:39:05;31.50;99.90
29353;DHT22;16344;50.364;8.944;2022-08-06T05:41:31;32.30;99.90
29353;DHT22;16344;50.364;8.944;2022-08-06T05:44:00;32.60;99.90
29353;DHT22;16344;50.364;8.944;2022-08-06T05:46:30;33.00;99.90
29353;DHT22;16344;50.364;8.944;2022-08-06T05:49:48;33.70;99.90
29353;DHT22;16344;50.364;8.944;2022-08-06T05:52:11;34.00;99.90
29353;DHT22;16344;50.364;8.944;2022-08-06T05:54:45;33.90;99.90
29353;DHT22;16344;50.364;8.944;2022-08-06T05:57:26;34.50;99.90
29353;DHT22;16344;50.364;8.944;2022-08-06T06:00:06;34.80;99.90
29353;DHT22;16344;50.364;8.944;2022-08-06T06:02:39;35.10;99.90
29353;DHT22;16344;50.364;8.944;2022-08-06T06:05:06;34.80;99.90
29353;DHT22;16344;50.364;8.944;2022-08-06T06:07:33;34.50;99.90
29353;DHT22;16344;50.364;8.944;2022-08-06T06:10:03;34.50;99.90
29353;DHT22;16344;50.364;8.944;2022-08-06T06:12:30;34.20;99.90
29353;DHT22;16344;50.364;8.944;2022-08-06T06:14:56;33.20;99.90
29353;DHT22;16344;50.364;8.944;2022-08-06T06:20:42;32.10;99.90
29353;DHT22;16344;50.364;8.944;2022-08-06T06:23:30;31.40;99.90
29353;DHT22;16344;50.364;8.944;2022-08-06T06:26:17;30.90;99.90
29353;DHT22;16344;50.364;8.944;2022-08-06T06:29:01;30.40;99.90
29353;DHT22;16344;50.364;8.944;2022-08-06T06:31:51;29.50;99.90
29353;DHT22;16344;50.364;8.944;2022-08-06T06:40:01;28.20;99.90
29353;DHT22;16344;50.364;8.944;2022-08-06T06:42:35;27.90;99.90
29353;DHT22;16344;50.364;8.944;2022-08-06T06:45:24;27.50;99.90
29353;DHT22;16344;50.364;8.944;2022-08-06T06:47:58;27.50;99.90
29353;DHT22;16344;50.364;8.944;2022-08-06T06:50:46;27.10;99.90
29353;DHT22;16344;50.364;8.944;2022-08-06T06:53:14;26.80;99.90
29353;DHT22;16344;50.364;8.944;2022-08-06T06:55:49;26.70;99.90
29353;DHT22;16344;50.364;8.944;2022-08-06T06:58:33;26.50;99.90
29353;DHT22;16344;50.364;8.944;2022-08-06T07:01:01;26.30;99.90
29353;DHT22;16344;50.364;8.944;2022-08-06T07:03:29;26.10;99.90
29353;DHT22;16344;50.364;8.944;2022-08-06T07:05:59;25.90;99.90
29353;DHT22;16344;50.364;8.944;2022-08-06T07:08:26;26.00;99.90
29353;DHT22;16344;50.364;8.944;2022-08-06T07:10:53;25.90;99.90
29353;DHT22;16344;50.364;8.944;2022-08-06T07:13:21;25.60;99.90
29353;DHT22;16344;50.364;8.944;2022-08-06T07:15:47;25.60;99.90
29353;DHT22;16344;50.364;8.944;2022-08-06T07:18:15;25.80;99.90
29353;DHT22;16344;50.364;8.944;2022-08-06T07:20:42;25.50;99.90
29353;DHT22;16344;50.364;8.944;2022-08-06T07:23:09;25.60;99.90
29353;DHT22;16344;50.364;8.944;2022-08-06T07:25:44;25.60;99.90
29353;DHT22;16344;50.364;8.944;2022-08-06T07:28:11;25.80;99.90
29353;DHT22;16344;50.364;8.944;2022-08-06T07:30:39;25.90;99.90
29353;DHT22;16344;50.364;8.944;2022-08-06T07:33:06;25.90;99.90
29353;DHT22;16344;50.364;8.944;2022-08-06T07:35:34;26.10;99.90
29353;DHT22;16344;50.364;8.944;2022-08-06T07:38:02;26.20;99.90
29353;DHT22;16344;50.364;8.944;2022-08-06T07:40:31;26.00;99.90
29353;DHT22;16344;50.364;8.944;2022-08-06T07:45:34;26.00;99.90
29353;DHT22;16344;50.364;8.944;2022-08-06T07:48:05;25.70;99.90
29353;DHT22;16344;50.364;8.944;2022-08-06T07:50:32;25.70;99.90
29353;DHT22;16344;50.364;8.944;2022-08-06T07:52:58;25.60;99.90
29353;DHT22;16344;50.364;8.944;2022-08-06T07:55:25;25.70;99.90
29353;DHT22;16344;50.364;8.944;2022-08-06T07:57:56;25.70;99.90
29353;DHT22;16344;50.364;8.944;2022-08-06T08:00:22;25.60;99.90
29353;DHT22;16344;50.364;8.944;2022-08-06T08:02:50;25.60;99.90
29353;DHT22;16344;50.364;8.944;2022-08-06T08:05:37;25.50;99.90
29353;DHT22;16344;50.364;8.944;2022-08-06T08:08:22;25.60;99.90
29353;DHT22;16344;50.364;8.944;2022-08-06T08:10:49;25.80;99.90
29353;DHT22;16344;50.364;8.944;2022-08-06T08:13:16;26.00;99.90
29353;DHT22;16344;50.364;8.944;2022-08-06T08:15:44;26.20;99.90
29353;DHT22;16344;50.364;8.944;2022-08-06T08:18:10;26.10;99.90
29353;DHT22;16344;50.364;8.944;2022-08-06T08:20:38;26.10;99.90
29353;DHT22;16344;50.364;8.944;2022-08-06T08:23:05;26.20;99.90
29353;DHT22;16344;50.364;8.944;2022-08-06T08:25:32;26.20;99.90
29353;DHT22;16344;50.364;8.944;2022-08-06T08:27:59;26.20;99.90
29353;DHT22;16344;50.364;8.944;2022-08-06T08:30:24;26.20;99.90
29353;DHT22;16344;50.364;8.944;2022-08-06T08:32:50;26.30;99.90
29353;DHT22;16344;50.364;8.944;2022-08-06T08:35:15;26.10;99.90
29353;DHT22;16344;50.364;8.944;2022-08-06T08:37:41;26.10;99.90
29353;DHT22;16344;50.364;8.944;2022-08-06T08:40:07;26.10;99.90
29353;DHT22;16344;50.364;8.944;2022-08-06T08:42:37;26.30;99.90
29353;DHT22;16344;50.364;8.944;2022-08-06T08:45:05;26.30;99.90
29353;DHT22;16344;50.364;8.944;2022-08-06T08:47:33;26.30;99.90
29353;DHT22;16344;50.364;8.944;2022-08-06T08:50:01;26.20;99.90
29353;DHT22;16344;50.364;8.944;2022-08-06T08:52:38;26.00;99.90
29353;DHT22;16344;50.364;8.944;2022-08-06T08:55:06;25.90;99.90
29353;DHT22;16344;50.364;8.944;2022-08-06T08:57:34;25.80;99.90
29353;DHT22;16344;50.364;8.944;2022-08-06T09:00:05;25.70;99.90
29353;DHT22;16344;50.364;8.944;2022-08-06T09:02:31;25.90;99.90
29353;DHT22;16344;50.364;8.944;2022-08-06T09:04:58;25.80;99.90
29353;DHT22;16344;50.364;8.944;2022-08-06T09:07:24;25.90;99.90
29353;DHT22;16344;50.364;8.944;2022-08-06T09:09:51;26.10;99.90
29353;DHT22;16344;50.364;8.944;2022-08-06T09:12:17;26.00;99.90
29353;DHT22;16344;50.364;8.944;2022-08-06T09:14:43;25.90;99.90
29353;DHT22;16344;50.364;8.944;2022-08-06T09:17:11;25.80;99.90
29353;DHT22;16344;50.364;8.944;2022-08-06T09:19:38;26.00;99.90
29353;DHT22;16344;50.364;8.944;2022-08-06T09:22:03;26.10;99.90
29353;DHT22;16344;50.364;8.944;2022-08-06T09:24:29;26.10;99.90
29353;DHT22;16344;50.364;8.944;2022-08-06T09:27:21;26.10;99.90
29353;DHT22;16344;50.364;8.944;2022-08-06T09:29:56;26.00;99.90
29353;DHT22;16344;50.364;8.944;2022-08-06T09:32:39;26.10;99.90
29353;DHT22;16344;50.364;8.944;2022-08-06T09:35:26;26.30;99.90
29353;DHT22;16344;50.364;8.944;2022-08-06T09:38:06;26.50;99.90
29353;DHT22;16344;50.364;8.944;2022-08-06T09:40:33;26.50;99.90
29353;DHT22;16344;50.364;8.944;2022-08-06T09:42:59;26.60;99.90
29353;DHT22;16344;50.364;8.944;2022-08-06T09:45:25;26.40;99.90
29353;DHT22;16344;50.364;8.944;2022-08-06T09:48:05;26.20;99.90
29353;DHT22;16344;50.364;8.944;2022-08-06T09:53:04;26.20;99.90
29353;DHT22;16344;50.364;8.944;2022-08-06T09:55:31;26.40;99.90
29353;DHT22;16344;50.364;8.944;2022-08-06T09:57:58;26.60;99.90
29353;DHT22;16344;50.364;8.944;2022-08-06T10:00:25;26.80;99.90
29353;DHT22;16344;50.364;8.944;2022-08-06T10:03:01;26.90;99.90
29353;DHT22;16344;50.364;8.944;2022-08-06T10:05:27;26.80;99.90
29353;DHT22;16344;50.364;8.944;2022-08-06T10:08:11;26.80;99.90
29353;DHT22;16344;50.364;8.944;2022-08-06T10:13:12;26.70;99.90
29353;DHT22;16344;50.364;8.944;2022-08-06T10:15:38;26.70;99.90
29353;DHT22;16344;50.364;8.944;2022-08-06T10:18:04;26.80;99.90
29353;DHT22;16344;50.364;8.944;2022-08-06T10:20:30;26.90;99.90
29353;DHT22;16344;50.364;8.944;2022-08-06T10:22:55;26.90;99.90
29353;DHT22;16344;50.364;8.944;2022-08-06T10:25:25;26.90;99.90
29353;DHT22;16344;50.364;8.944;2022-08-06T10:27:54;26.80;99.90
29353;DHT22;16344;50.364;8.944;2022-08-06T10:30:20;26.80;99.90
29353;DHT22;16344;50.364;8.944;2022-08-06T10:32:48;26.80;99.90
29353;DHT22;16344;50.364;8.944;2022-08-06T10:35:20;27.00;99.90
29353;DHT22;16344;50.364;8.944;2022-08-06T10:37:51;27.00;99.90
29353;DHT22;16344;50.364;8.944;2022-08-06T10:40:19;27.00;99.90
29353;DHT22;16344;50.364;8.944;2022-08-06T10:42:46;27.10;99.90
29353;DHT22;16344;50.364;8.944;2022-08-06T10:45:12;26.90;99.90
29353;DHT22;16344;50.364;8.944;2022-08-06T10:47:39;26.70;99.90
29353;DHT22;16344;50.364;8.944;2022-08-06T10:50:06;26.60;99.90
29353;DHT22;16344;50.364;8.944;2022-08-06T10:52:34;26.90;99.90
29353;DHT22;16344;50.364;8.944;2022-08-06T10:54:59;26.90;99.90
29353;DHT22;16344;50.364;8.944;2022-08-06T10:57:26;27.00;99.90
29353;DHT22;16344;50.364;8.944;2022-08-06T10:59:52;26.90;99.90
29353;DHT22;16344;50.364;8.944;2022-08-06T11:02:49;26.90;99.90
29353;DHT22;16344;50.364;8.944;2022-08-06T11:05:19;26.90;99.90
29353;DHT22;16344;50.364;8.944;2022-08-06T11:10:29;26.80;99.90
29353;DHT22;16344;50.364;8.944;2022-08-06T11:15:36;26.60;99.90
29353;DHT22;16344;50.364;8.944;2022-08-06T11:18:06;26.80;99.90
29353;DHT22;16344;50.364;8.944;2022-08-06T11:22:58;27.00;99.90
29353;DHT22;16344;50.364;8.944;2022-08-06T11:30:55;27.00;99.90
29353;DHT22;16344;50.364;8.944;2022-08-06T11:36:09;27.20;99.90
29353;DHT22;16344;50.364;8.944;2022-08-06T11:41:18;27.10;99.90
29353;DHT22;16344;50.364;8.944;2022-08-06T11:46:32;26.90;99.90
29353;DHT22;16344;50.364;8.944;2022-08-06T11:51:43;27.00;99.90
29353;DHT22;16344;50.364;8.944;2022-08-06T11:59:45;27.00;99.90
29353;DHT22;16344;50.364;8.944;2022-08-06T12:02:14;27.10;99.90
29353;DHT22;16344;50.364;8.944;2022-08-06T12:04:42;26.80;99.90
29353;DHT22;16344;50.364;8.944;2022-08-06T12:07:21;26.80;99.90
29353;DHT22;16344;50.364;8.944;2022-08-06T12:10:09;26.90;99.90
29353;DHT22;16344;50.364;8.944;2022-08-06T12:12:48;27.10;99.90
29353;DHT22;16344;50.364;8.944;2022-08-06T12:20:37;27.20;99.90
29353;DHT22;16344;50.364;8.944;2022-08-06T12:23:11;27.20;99.90
29353;DHT22;16344;50.364;8.944;2022-08-06T12:25:39;27.30;99.90
29353;DHT22;16344;50.364;8.944;2022-08-06T12:28:06;27.10;99.90
29353;DHT22;16344;50.364;8.944;2022-08-06T12:30:52;27.00;99.90
29353;DHT22;16344;50.364;8.944;2022-08-06T12:33:19;26.90;99.90
29353;DHT22;16344;50.364;8.944;2022-08-06T12:35:56;26.90;99.90
29353;DHT22;16344;50.364;8.944;2022-08-06T12:38:26;27.00;99.90
29353;DHT22;16344;50.364;8.944;2022-08-06T12:40:57;27.20;99.90
29353;DHT22;16344;50.364;8.944;2022-08-06T12:43:25;27.40;99.90
29353;DHT22;16344;50.364;8.944;2022-08-06T12:45:59;27.30;99.90
29353;DHT22;16344;50.364;8.944;2022-08-06T12:48:25;27.40;99.90
29353;DHT22;16344;50.364;8.944;2022-08-06T12:51:08;27.60;99.90
29353;DHT22;16344;50.364;8.944;2022-08-06T12:53:39;27.70;99.90
29353;DHT22;16344;50.364;8.944;2022-08-06T12:56:06;27.60;99.90
29353;DHT22;16344;50.364;8.944;2022-08-06T12:58:36;27.50;99.90
29353;DHT22;16344;50.364;8.944;2022-08-06T13:01:03;27.40;99.90
29353;DHT22;16344;50.364;8.944;2022-08-06T13:03:30;27.60;99.90
29353;DHT22;16344;50.364;8.944;2022-08-06T13:05:59;27.50;99.90
29353;DHT22;16344;50.364;8.944;2022-08-06T13:08:25;27.60;99.90
29353;DHT22;16344;50.364;8.944;2022-08-06T13:10:53;27.50;99.90
29353;DHT22;16344;50.364;8.944;2022-08-06T13:13:19;27.50;99.90
29353;DHT22;16344;50.364;8.944;2022-08-06T13:16:11;27.50;99.90
29353;DHT22;16344;50.364;8.944;2022-08-06T13:18:38;27.50;99.90
29353;DHT22;16344;50.364;8.944;2022-08-06T13:21:16;27.50;99.90
29353;DHT22;16344;50.364;8.944;2022-08-06T13:23:45;27.50;99.90
29353;DHT22;16344;50.364;8.944;2022-08-06T13:26:16;27.50;99.90
29353;DHT22;16344;50.364;8.944;2022-08-06T13:31:27;27.40;99.90
29353;DHT22;16344;50.364;8.944;2022-08-06T13:34:00;27.40;99.90
29353;DHT22;16344;50.364;8.944;2022-08-06T13:36:27;27.40;99.90
29353;DHT22;16344;50.364;8.944;2022-08-06T13:38:53;27.40;99.90
29353;DHT22;16344;50.364;8.944;2022-08-06T13:41:26;27.50;99.90
29353;DHT22;16344;50.364;8.944;2022-08-06T13:43:52;27.70;99.90
29353;DHT22;16344;50.364;8.944;2022-08-06T13:46:18;27.50;99.90
29353;DHT22;16344;50.364;8.944;2022-08-06T13:48:45;27.30;99.90
29353;DHT22;16344;50.364;8.944;2022-08-06T13:51:12;27.10;99.90
29353;DHT22;16344;50.364;8.944;2022-08-06T13:53:38;27.20;99.90
29353;DHT22;16344;50.364;8.944;2022-08-06T13:56:04;27.30;99.90
29353;DHT22;16344;50.364;8.944;2022-08-06T13:58:30;27.20;99.90
29353;DHT22;16344;50.364;8.944;2022-08-06T14:00:56;27.30;99.90
29353;DHT22;16344;50.364;8.944;2022-08-06T14:03:23;27.30;99.90
29353;DHT22;16344;50.364;8.944;2022-08-06T14:05:48;27.20;99.90
29353;DHT22;16344;50.364;8.944;2022-08-06T14:08:14;27.30;99.90
29353;DHT22;16344;50.364;8.944;2022-08-06T14:10:40;27.30;99.90
29353;DHT22;16344;50.364;8.944;2022-08-06T14:13:05;27.40;99.90
29353;DHT22;16344;50.364;8.944;2022-08-06T14:15:45;27.20;99.90
29353;DHT22;16344;50.364;8.944;2022-08-06T14:18:12;27.10;99.90
29353;DHT22;16344;50.364;8.944;2022-08-06T14:20:37;27.20;99.90
29353;DHT22;16344;50.364;8.944;2022-08-06T14:23:03;27.30;99.90
29353;DHT22;16344;50.364;8.944;2022-08-06T14:25:29;27.40;99.90
29353;DHT22;16344;50.364;8.944;2022-08-06T14:27:54;27.50;99.90
29353;DHT22;16344;50.364;8.944;2022-08-06T14:30:21;27.60;99.90
29353;DHT22;16344;50.364;8.944;2022-08-06T14:32:47;27.50;99.90
29353;DHT22;16344;50.364;8.944;2022-08-06T14:35:12;27.50;99.90
29353;DHT22;16344;50.364;8.944;2022-08-06T14:37:39;27.70;99.90
29353;DHT22;16344;50.364;8.944;2022-08-06T14:40:05;27.70;99.90
29353;DHT22;16344;50.364;8.944;2022-08-06T14:42:31;27.70;99.90
29353;DHT22;16344;50.364;8.944;2022-08-06T14:45:15;27.60;99.90
29353;DHT22;16344;50.364;8.944;2022-08-06T14:47:41;27.50;99.90
29353;DHT22;16344;50.364;8.944;2022-08-06T14:50:07;27.50;99.90
29353;DHT22;16344;50.364;8.944;2022-08-06T14:52:33;27.50;99.90
29353;DHT22;16344;50.364;8.944;2022-08-06T14:54:59;27.40;99.90
29353;DHT22;16344;50.364;8.944;2022-08-06T14:57:26;27.30;99.90
29353;DHT22;16344;50.364;8.944;2022-08-06T14:59:52;27.30;99.90
29353;DHT22;16344;50.364;8.944;2022-08-06T15:02:17;27.50;99.90
29353;DHT22;16344;50.364;8.944;2022-08-06T15:04:43;27.40;99.90
29353;DHT22;16344;50.364;8.944;2022-08-06T15:07:08;27.50;99.90
29353;DHT22;16344;50.364;8.944;2022-08-06T15:09:34;27.40;99.90
29353;DHT22;16344;50.364;8.944;2022-08-06T15:12:00;27.30;99.90
29353;DHT22;16344;50.364;8.944;2022-08-06T15:14:26;27.30;99.90
29353;DHT22;16344;50.364;8.944;2022-08-06T15:16:53;27.20;99.90
29353;DHT22;16344;50.364;8.944;2022-08-06T15:19:19;27.30;99.90
29353;DHT22;16344;50.364;8.944;2022-08-06T15:21:45;27.20;99.90
29353;DHT22;16344;50.364;8.944;2022-08-06T15:24:12;27.20;99.90
29353;DHT22;16344;50.364;8.944;2022-08-06T15:26:37;27.10;99.90
29353;DHT22;16344;50.364;8.944;2022-08-06T15:29:03;27.20;99.90
29353;DHT22;16344;50.364;8.944;2022-08-06T15:31:28;27.10;99.90
29353;DHT22;16344;50.364;8.944;2022-08-06T15:33:55;27.00;99.90
29353;DHT22;16344;50.364;8.944;2022-08-06T15:36:22;27.00;99.90
29353;DHT22;16344;50.364;8.944;2022-08-06T15:38:48;27.00;99.90
29353;DHT22;16344;50.364;8.944;2022-08-06T15:41:13;27.00;99.90
29353;DHT22;16344;50.364;8.944;2022-08-06T15:43:39;26.80;99.90
29353;DHT22;16344;50.364;8.944;2022-08-06T15:46:05;26.90;99.90
29353;DHT22;16344;50.364;8.944;2022-08-06T15:48:31;26.90;99.90
29353;DHT22;16344;50.364;8.944;2022-08-06T15:50:57;26.80;99.90
29353;DHT22;16344;50.364;8.944;2022-08-06T15:53:23;26.70;99.90
29353;DHT22;16344;50.364;8.944;2022-08-06T15:55:49;26.70;99.90
29353;DHT22;16344;50.364;8.944;2022-08-06T15:58:14;26.40;99.90
29353;DHT22;16344;50.364;8.944;2022-08-06T16:00:41;26.40;99.90
29353;DHT22;16344;50.364;8.944;2022-08-06T16:03:08;26.30;99.90
29353;DHT22;16344;50.364;8.944;2022-08-06T16:05:36;26.20;99.90
29353;DHT22;16344;50.364;8.944;2022-08-06T16:08:02;26.20;99.90
29353;DHT22;16344;50.364;8.944;2022-08-06T16:10:28;26.20;99.90
29353;DHT22;16344;50.364;8.944;2022-08-06T16:12:54;26.20;99.90
29353;DHT22;16344;50.364;8.944;2022-08-06T16:15:20;26.10;99.90
29353;DHT22;16344;50.364;8.944;2022-08-06T16:17:46;25.90;99.90
29353;DHT22;16344;50.364;8.944;2022-08-06T16:20:14;25.90;99.90
29353;DHT22;16344;50.364;8.944;2022-08-06T16:22:40;25.80;99.90
29353;DHT22;16344;50.364;8.944;2022-08-06T16:25:06;25.80;99.90
29353;DHT22;16344;50.364;8.944;2022-08-06T16:27:31;25.80;99.90
29353;DHT22;16344;50.364;8.944;2022-08-06T16:29:57;25.80;99.90
29353;DHT22;16344;50.364;8.944;2022-08-06T16:32:23;25.70;99.90
29353;DHT22;16344;50.364;8.944;2022-08-06T16:34:48;25.60;99.90
29353;DHT22;16344;50.364;8.944;2022-08-06T16:37:15;25.50;99.90
29353;DHT22;16344;50.364;8.944;2022-08-06T16:39:40;25.70;99.90
29353;DHT22;16344;50.364;8.944;2022-08-06T16:42:07;25.70;99.90
29353;DHT22;16344;50.364;8.944;2022-08-06T16:44:34;25.30;99.90
29353;DHT22;16344;50.364;8.944;2022-08-06T16:46:59;25.20;99.90
29353;DHT22;16344;50.364;8.944;2022-08-06T16:49:25;25.10;99.90